WXM80 ListenWXM80 Stop

You find our weather info also at:

UK Metoffice

WeatherCloud

Weather Underground

Northeastern Weather Network

AWEKAS

Citizen Weather Observer Program (CWOP)

HAMweather, WeatherForYou, PWS Weather


Weather Underground History page Text

Daily Summary for September 19, 2017 Units:  Metric    English   Both
« Previous Day
Next Day »
Daily Weekly Monthly Yearly Custom
  High: Low: Average:
Temperature: 23.2 °C 20.5 °C 21.3 °C
Dew Point: 20.4 °C 19.2 °C 19.9 °C
Humidity: 96 % 82 % 92 %
Wind Speed: 17.9 km/h 3.4 km/h 9.8 km/h
Wind Gust: 32.2 km/h - -
Wind:- - ENE
Pressure: 1016.1 hPa 1008.4 hPa -
Precipitation: 6.1 mm    
Historical Graphs
 
 
Tabular Data for September 19, 2017
Time Temperature Dew Point Pressure Wind Wind Speed Wind Gust Humidity Rainfall Rate (Hourly)
00:04 21.7 °C 20.3 °C 1016.1 hPa ENE 3.4 km/h 5.6 km/h 92 % 0 mm
00:09 21.7 °C 20.3 °C 1016.1 hPa ENE 5.6 km/h 7.4 km/h 92 % 0 mm
00:14 21.7 °C 20.3 °C 1016.1 hPa ENE 6.9 km/h 9.3 km/h 92 % 0 mm
00:19 21.7 °C 20.3 °C 1016.1 hPa ENE 7.1 km/h 11.1 km/h 92 % 0 mm
00:24 21.7 °C 20.3 °C 1016.1 hPa NE 7.1 km/h 13 km/h 92 % 0 mm
00:29 21.7 °C 20.3 °C 1016.1 hPa NE 7.2 km/h 13 km/h 92 % 0 mm
00:34 21.6 °C 20.3 °C 1016.1 hPa ENE 8.7 km/h 9.3 km/h 92 % 0 mm
00:40 21.6 °C 20.3 °C 1016.1 hPa ENE 4.3 km/h 5.6 km/h 92 % 0 mm
00:45 21.6 °C 20.3 °C 1016.1 hPa ENE 5.5 km/h 11.1 km/h 92 % 0 mm
00:50 21.6 °C 20.3 °C 1016.1 hPa ENE 3.7 km/h 11.1 km/h 92 % 0 mm
00:55 21.6 °C 20.2 °C 1016.1 hPa ENE 6.8 km/h 11.3 km/h 92 % 0 mm
01:00 21.6 °C 20.2 °C 1016.1 hPa ENE 4.7 km/h 7.4 km/h 92 % 0 mm
01:05 21.6 °C 20.4 °C 1016.1 hPa East 6.9 km/h 11.1 km/h 93 % 0 mm
01:10 21.6 °C 20.4 °C 1016.1 hPa ENE 7.7 km/h 13 km/h 93 % 0 mm
01:15 21.6 °C 20.4 °C 1016.1 hPa ENE 5.5 km/h 13 km/h 93 % 0 mm
01:20 21.6 °C 20.4 °C 1016.1 hPa ENE 5.8 km/h 14.5 km/h 93 % 0 mm
01:25 21.5 °C 20.3 °C 1016.1 hPa ENE 6.8 km/h 12.9 km/h 93 % 0 mm
01:30 21.5 °C 20.3 °C 1015.8 hPa ENE 5.8 km/h 8 km/h 93 % 0 mm
01:35 21.5 °C 20.3 °C 1015.8 hPa ENE 5 km/h 9.3 km/h 93 % 0 mm
01:40 21.5 °C 20.3 °C 1015.8 hPa ENE 7.7 km/h 9.3 km/h 93 % 0 mm
01:51 21.5 °C 20.3 °C 1015.8 hPa ENE 4.8 km/h 12.9 km/h 93 % 0 mm
01:56 21.5 °C 20.3 °C 1015.8 hPa NE 5.3 km/h 13 km/h 93 % 0 mm
02:01 21.5 °C 20.3 °C 1015.8 hPa ENE 4.3 km/h 5.6 km/h 93 % 0 mm
02:06 21.5 °C 20.3 °C 1015.8 hPa ENE 8 km/h 16.7 km/h 93 % 0 mm
02:11 21.5 °C 20.3 °C 1015.8 hPa ENE 7.1 km/h 11.1 km/h 93 % 0 mm
02:16 21.5 °C 20.3 °C 1015.5 hPa ENE 5.8 km/h 8 km/h 93 % 0 mm
02:21 21.5 °C 20.3 °C 1015.5 hPa ENE 6 km/h 11.1 km/h 93 % 0 mm
02:26 21.5 °C 20.3 °C 1015.5 hPa NE 5.1 km/h 8 km/h 93 % 0 mm
02:31 21.5 °C 20.3 °C 1015.5 hPa East 5.3 km/h 8 km/h 93 % 0 mm
02:36 21.5 °C 20.3 °C 1015.5 hPa ENE 8 km/h 14.8 km/h 93 % 0 mm
02:41 21.4 °C 20.3 °C 1015.1 hPa NE 3.7 km/h 5.6 km/h 93 % 0 mm
02:46 21.4 °C 20.3 °C 1015.1 hPa East 6.9 km/h 14.8 km/h 93 % 0 mm
02:51 21.4 °C 20.1 °C 1015.1 hPa NE 5.3 km/h 11.1 km/h 92 % 0 mm
02:57 21.4 °C 20.1 °C 1015.1 hPa NE 7.2 km/h 14.8 km/h 92 % 0 mm
03:02 21.4 °C 20.3 °C 1015.1 hPa ENE 7.2 km/h 13 km/h 93 % 0 mm
03:07 21.4 °C 20.3 °C 1015.1 hPa ENE 5.1 km/h 14.8 km/h 93 % 0 mm
03:12 21.4 °C 20.3 °C 1015.1 hPa ENE 6.3 km/h 11.3 km/h 93 % 0 mm
03:17 21.4 °C 20.2 °C 1014.8 hPa ENE 12.1 km/h 18.5 km/h 93 % 0 mm
03:22 21.4 °C 20.2 °C 1014.8 hPa East 10.6 km/h 18.5 km/h 93 % 0 mm
03:27 21.4 °C 20.1 °C 1014.8 hPa ENE 10.5 km/h 16.7 km/h 92 % 0 mm
03:32 21.4 °C 20.1 °C 1015.1 hPa East 7.2 km/h 13 km/h 92 % 0 mm
03:37 21.4 °C 20.2 °C 1015.1 hPa ENE 8.9 km/h 11.1 km/h 93 % 0 mm
03:42 21.4 °C 20.2 °C 1014.8 hPa NNE 7.4 km/h 18.5 km/h 93 % 0 mm
03:47 21.4 °C 20.2 °C 1015.1 hPa ENE 7.1 km/h 8 km/h 93 % 0 mm
03:52 21.4 °C 20.2 °C 1014.8 hPa ENE 9.8 km/h 16.7 km/h 93 % 0 mm
03:58 21.3 °C 20.2 °C 1014.8 hPa ENE 7.9 km/h 16.7 km/h 93 % 0 mm
04:03 21.3 °C 20.2 °C 1014.8 hPa NE 8.4 km/h 13 km/h 93 % 0 mm
04:08 21.3 °C 20.2 °C 1014.8 hPa ENE 6.9 km/h 18.5 km/h 93 % 0 mm
04:13 21.3 °C 20.1 °C 1014.8 hPa ENE 10.9 km/h 16.7 km/h 93 % 0 mm
04:18 21.3 °C 20.1 °C 1014.8 hPa NE 14.2 km/h 20.4 km/h 93 % 0 mm
04:23 21.2 °C 20.1 °C 1014.8 hPa NE 10.8 km/h 13 km/h 93 % 0 mm
04:28 21.2 °C 20.1 °C 1014.8 hPa ENE 10.5 km/h 18.5 km/h 93 % 0 mm
04:33 21.2 °C 20.1 °C 1014.8 hPa ENE 7.4 km/h 12.9 km/h 93 % 0 mm
04:38 21.2 °C 20.1 °C 1014.8 hPa ENE 8 km/h 12.9 km/h 93 % 0 mm
04:43 21.2 °C 20.1 °C 1014.8 hPa ENE 8.4 km/h 20.4 km/h 93 % 0 mm
04:48 21.2 °C 20.1 °C 1014.8 hPa NE 8.5 km/h 17.7 km/h 93 % 0 mm
04:53 21.2 °C 20.1 °C 1014.8 hPa ENE 10.3 km/h 20.4 km/h 93 % 0 mm
04:59 21.2 °C 20 °C 1014.8 hPa NE 10.3 km/h 14.5 km/h 93 % 0 mm
05:04 21.2 °C 20 °C 1014.8 hPa ENE 6.8 km/h 18.5 km/h 93 % 0 mm
05:09 21.2 °C 20 °C 1014.4 hPa ENE 10.1 km/h 18.5 km/h 93 % 0 mm
05:14 21.2 °C 20 °C 1014.4 hPa ENE 8.9 km/h 14.8 km/h 93 % 0 mm
05:19 21.1 °C 19.9 °C 1014.4 hPa ENE 6.9 km/h 13 km/h 93 % 0 mm
05:24 21.1 °C 19.9 °C 1014.8 hPa ENE 11.9 km/h 20.9 km/h 93 % 0 mm
05:29 21.1 °C 19.9 °C 1014.4 hPa ENE 10.3 km/h 18.5 km/h 93 % 0 mm
05:34 21.1 °C 19.9 °C 1014.4 hPa NE 8 km/h 16.7 km/h 93 % 0 mm
05:39 21.1 °C 19.7 °C 1014.4 hPa NE 9.7 km/h 14.8 km/h 92 % 0 mm
05:44 21 °C 19.7 °C 1014.4 hPa ENE 10.1 km/h 16.7 km/h 92 % 0 mm
05:49 21 °C 19.7 °C 1014.4 hPa NE 9 km/h 16.7 km/h 92 % 0 mm
05:54 21 °C 19.7 °C 1014.8 hPa ENE 8.2 km/h 16.7 km/h 92 % 0 mm
05:59 20.9 °C 19.6 °C 1014.8 hPa ENE 9.7 km/h 12.9 km/h 92 % 0 mm
06:05 20.9 °C 19.6 °C 1014.4 hPa NNE 9.7 km/h 18.5 km/h 92 % 0 mm
06:10 20.9 °C 19.6 °C 1014.4 hPa NE 6.6 km/h 13 km/h 92 % 0 mm
06:15 20.9 °C 19.6 °C 1014.4 hPa ENE 7.2 km/h 13 km/h 92 % 0 mm
06:20 20.9 °C 19.6 °C 1014.8 hPa NE 6 km/h 11.1 km/h 92 % 0 mm
06:25 20.9 °C 19.6 °C 1014.8 hPa NE 5 km/h 13 km/h 92 % 0 mm
06:30 20.9 °C 19.6 °C 1014.8 hPa NNE 6.3 km/h 13 km/h 92 % 0 mm
06:35 20.8 °C 19.5 °C 1014.8 hPa East 5.8 km/h 9.7 km/h 92 % 0 mm
06:40 20.8 °C 19.5 °C 1014.8 hPa NNE 5.5 km/h 7.4 km/h 92 % 0 mm
06:45 20.8 °C 19.4 °C 1014.8 hPa ENE 5.3 km/h 11.1 km/h 92 % 0 mm
06:50 20.8 °C 19.4 °C 1014.8 hPa NE 8 km/h 13 km/h 92 % 0 mm
06:55 20.8 °C 19.4 °C 1014.8 hPa ENE 10.5 km/h 16.7 km/h 92 % 0 mm
07:00 20.7 °C 19.4 °C 1014.8 hPa NE 7.6 km/h 14.8 km/h 92 % 0 mm
07:02 20.7 °C 19.4 °C 1014.8 hPa NE 8.4 km/h 13 km/h 92 % 0 mm
07:07 20.7 °C 19.3 °C 1014.4 hPa NE 6.9 km/h 11.1 km/h 92 % 0 mm
07:12 20.7 °C 19.3 °C 1014.4 hPa ENE 9.8 km/h 14.8 km/h 92 % 0 mm
07:17 20.7 °C 19.3 °C 1014.4 hPa ENE 14.5 km/h 22.2 km/h 92 % 0 mm
07:22 20.7 °C 19.3 °C 1014.1 hPa ENE 9.2 km/h 14.5 km/h 92 % 0 mm
07:28 20.7 °C 19.3 °C 1014.1 hPa ENE 9.5 km/h 14.5 km/h 92 % 0 mm
07:33 20.7 °C 19.3 °C 1014.1 hPa ENE 10.8 km/h 18.5 km/h 92 % 0 mm
07:38 20.7 °C 19.4 °C 1014.1 hPa NE 6.6 km/h 18.5 km/h 92 % 0 mm
07:43 20.7 °C 19.4 °C 1014.1 hPa NE 10.8 km/h 13 km/h 92 % 0 mm
07:48 20.7 °C 19.4 °C 1014.1 hPa ENE 8.2 km/h 14.8 km/h 92 % 0 mm
07:53 20.7 °C 19.4 °C 1014.1 hPa ENE 8.5 km/h 14.8 km/h 92 % 0 mm
07:58 20.7 °C 19.4 °C 1014.1 hPa ENE 10.6 km/h 20.4 km/h 92 % 0 mm
08:03 20.7 °C 19.4 °C 1014.1 hPa NE 7.1 km/h 11.1 km/h 92 % 0 mm
08:08 20.7 °C 19.2 °C 1014.1 hPa NE 12.4 km/h 20.4 km/h 91 % 0 mm
08:13 20.7 °C 19.2 °C 1014.1 hPa ENE 8 km/h 18.5 km/h 91 % 0 mm
08:18 20.7 °C 19.2 °C 1014.1 hPa North 8.5 km/h 14.8 km/h 91 % 0 mm
08:23 20.7 °C 19.2 °C 1014.1 hPa ENE 13 km/h 22.2 km/h 91 % 0 mm
08:28 20.7 °C 19.2 °C 1014.4 hPa ENE 9.3 km/h 11.3 km/h 91 % 0 mm
08:34 20.8 °C 19.3 °C 1014.4 hPa ENE 7.4 km/h 11.3 km/h 91 % 0 mm
08:39 20.8 °C 19.3 °C 1014.4 hPa ENE 15 km/h 24.1 km/h 91 % 0 mm
08:44 20.8 °C 19.3 °C 1014.4 hPa ENE 8.2 km/h 22.2 km/h 91 % 0 mm
08:49 20.8 °C 19.3 °C 1014.4 hPa NE 9.2 km/h 16.7 km/h 91 % 0 mm
08:54 20.9 °C 19.4 °C 1014.4 hPa NE 10.6 km/h 18.5 km/h 91 % 0 mm
08:59 21 °C 19.5 °C 1014.4 hPa ENE 8.7 km/h 16.7 km/h 91 % 0 mm
09:04 21.1 °C 19.6 °C 1014.4 hPa NE 6.4 km/h 14.8 km/h 91 % 0 mm
09:09 21.1 °C 19.4 °C 1014.4 hPa ENE 9.3 km/h 16.7 km/h 90 % 0 mm
09:14 21.1 °C 19.2 °C 1014.4 hPa ENE 9.5 km/h 16.7 km/h 89 % 0 mm
09:19 21.2 °C 19.4 °C 1014.4 hPa ENE 10.1 km/h 16.7 km/h 90 % 0 mm
09:29 21.2 °C 19.3 °C 1014.4 hPa ENE 6.1 km/h 18.5 km/h 89 % 0 mm
09:34 21.1 °C 19.2 °C 1014.4 hPa NE 10.6 km/h 14.8 km/h 89 % 0 mm
09:39 21.1 °C 19.4 °C 1014.4 hPa ENE 7.1 km/h 11.1 km/h 90 % 0 mm
09:45 21.1 °C 19.4 °C 1014.8 hPa ENE 9.7 km/h 16.7 km/h 90 % 0 mm
09:50 21.1 °C 19.4 °C 1014.8 hPa ENE 6.9 km/h 14.8 km/h 90 % 0 mm
09:55 21.1 °C 19.4 °C 1014.8 hPa ENE 6 km/h 14.8 km/h 90 % 0 mm
10:00 21.2 °C 19.4 °C 1014.8 hPa NE 4.8 km/h 7.4 km/h 90 % 0 mm
10:05 21.2 °C 19.4 °C 1014.4 hPa ENE 10.1 km/h 16.7 km/h 90 % 0 mm
10:10 21.2 °C 19.3 °C 1014.8 hPa ENE 11.3 km/h 20.9 km/h 89 % 0 mm
10:15 21.2 °C 19.2 °C 1014.4 hPa ENE 12.7 km/h 20.4 km/h 88 % 0 mm
10:20 21.3 °C 19.2 °C 1014.4 hPa North 8.7 km/h 16.7 km/h 88 % 0 mm
10:25 21.3 °C 19.4 °C 1014.4 hPa NE 10.3 km/h 25.9 km/h 89 % 0 mm
10:30 21.4 °C 19.6 °C 1014.1 hPa NE 8.2 km/h 11.1 km/h 89 % 0 mm
10:35 21.6 °C 19.5 °C 1014.1 hPa ENE 9.5 km/h 16.7 km/h 88 % 0 mm
10:41 21.7 °C 19.6 °C 1014.1 hPa East 15.1 km/h 16.1 km/h 88 % 0 mm
10:46 21.7 °C 19.4 °C 1014.1 hPa ENE 12.9 km/h 19.3 km/h 87 % 0 mm
10:51 21.8 °C 19.5 °C 1014.4 hPa ENE 11.3 km/h 24.1 km/h 87 % 0 mm
10:56 21.8 °C 19.5 °C 1014.1 hPa ENE 14.5 km/h 20.9 km/h 87 % 0 mm
11:01 21.8 °C 19.6 °C 1014.1 hPa ENE 10.3 km/h 20.4 km/h 87 % 0 mm
11:06 21.9 °C 19.7 °C 1014.1 hPa ENE 9.7 km/h 24.1 km/h 87 % 0 mm
11:11 22.1 °C 19.7 °C 1014.1 hPa ENE 12.9 km/h 20.9 km/h 86 % 0 mm
11:16 22.3 °C 19.8 °C 1013.8 hPa ENE 11.3 km/h 20.9 km/h 86 % 0 mm
11:21 22.6 °C 20.2 °C 1014.1 hPa ENE 12.9 km/h 24.1 km/h 86 % 0 mm
11:26 22.8 °C 20 °C 1013.8 hPa ENE 11.3 km/h 27.4 km/h 84 % 0 mm
11:31 23.1 °C 20.2 °C 1013.8 hPa ENE 12.9 km/h 22.5 km/h 84 % 0 mm
11:36 23.2 °C 19.9 °C 1013.8 hPa ENE 14.5 km/h 22.5 km/h 82 % 0 mm
11:41 23.1 °C 20.1 °C 1013.8 hPa ENE 11.3 km/h 27.4 km/h 83 % 0 mm
11:46 23.1 °C 20.1 °C 1013.8 hPa ENE 14.5 km/h 20.9 km/h 83 % 0 mm
11:51 23 °C 19.9 °C 1013.4 hPa ENE 12.9 km/h 29 km/h 83 % 0 mm
11:56 22.9 °C 19.9 °C 1013.4 hPa ENE 14.5 km/h 25.7 km/h 83 % 0 mm
12:01 22.9 °C 19.9 °C 1013.4 hPa ENE 17.4 km/h 31.5 km/h 83 % 0 mm
12:06 22.9 °C 19.9 °C 1013.1 hPa ENE 12.4 km/h 25.9 km/h 83 % 0 mm
12:11 22.9 °C 19.8 °C 1013.1 hPa NE 15.3 km/h 24.1 km/h 83 % 0 mm
12:16 22.8 °C 20 °C 1013.1 hPa NE 13.7 km/h 18.5 km/h 84 % 0 mm
12:21 22.8 °C 20 °C 1013.1 hPa NE 12.7 km/h 22.2 km/h 84 % 0 mm
12:26 22.8 °C 19.9 °C 1013.1 hPa NE 10.9 km/h 19.3 km/h 84 % 0 mm
12:31 22.7 °C 20.1 °C 1013.1 hPa NE 10.6 km/h 20.9 km/h 85 % 0 mm
12:36 22.7 °C 20 °C 1013.1 hPa ENE 15.4 km/h 25.9 km/h 85 % 0 mm
12:41 22.6 °C 19.9 °C 1013.1 hPa ENE 15 km/h 25.9 km/h 85 % 0 mm
12:46 22.5 °C 20.1 °C 1013.1 hPa NE 15.6 km/h 24.1 km/h 86 % 0 mm
12:51 22.3 °C 19.9 °C 1013.1 hPa ENE 17.4 km/h 20.4 km/h 86 % 0 mm
12:57 22.2 °C 19.8 °C 1012.8 hPa ENE 15.1 km/h 24.1 km/h 86 % 0 mm
13:02 22.2 °C 19.7 °C 1012.4 hPa NNE 17.9 km/h 22.2 km/h 86 % 0 mm
13:07 22.2 °C 19.9 °C 1012.8 hPa ENE 9.7 km/h 18.5 km/h 87 % 0 mm
13:12 22.2 °C 19.9 °C 1012.4 hPa NE 8.5 km/h 13 km/h 87 % 0 mm
13:17 22.2 °C 20.1 °C 1012.4 hPa NE 8 km/h 16.7 km/h 88 % 0 mm
13:22 22.2 °C 19.9 °C 1012.4 hPa ENE 10.5 km/h 18.5 km/h 87 % 0 mm
13:27 22.2 °C 20.1 °C 1012.4 hPa NE 9.5 km/h 16.7 km/h 88 % 0.25 mm
13:32 22.1 °C 20 °C 1012.1 hPa ENE 8.2 km/h 13 km/h 88 % 0.25 mm
13:37 22 °C 19.9 °C 1012.1 hPa ENE 7.2 km/h 13 km/h 88 % 0.25 mm
13:42 21.9 °C 20 °C 1012.1 hPa ENE 8.5 km/h 16.7 km/h 89 % 0.51 mm
13:44 21.8 °C 19.9 °C 1012.1 hPa ENE 6.4 km/h 11.3 km/h 89 % 0.51 mm
13:49 21.8 °C 19.9 °C 1012.1 hPa ENE 7.4 km/h 20.9 km/h 89 % 0.76 mm
13:54 21.7 °C 19.9 °C 1012.1 hPa NE 6.8 km/h 14.8 km/h 90 % 1.27 mm
13:59 21.6 °C 20 °C 1012.1 hPa East 8.5 km/h 16.1 km/h 91 % 1.52 mm
14:04 21.4 °C 19.9 °C 1012.1 hPa East 8.7 km/h 14.8 km/h 91 % 1.78 mm
14:09 21.3 °C 19.8 °C 1012.1 hPa ENE 9.3 km/h 14.8 km/h 91 % 2.29 mm
14:14 21.2 °C 19.9 °C 1012.1 hPa NNE 9.3 km/h 14.5 km/h 92 % 2.79 mm
14:19 21.2 °C 19.8 °C 1011.7 hPa NNE 10.1 km/h 18.5 km/h 92 % 2.79 mm
14:25 21.1 °C 19.9 °C 1011.7 hPa NNE 10.8 km/h 16.7 km/h 93 % 3.05 mm
14:30 21 °C 19.8 °C 1011.7 hPa NE 7.6 km/h 14.8 km/h 93 % 3.3 mm
14:35 20.9 °C 19.9 °C 1011.4 hPa North 8.4 km/h 14.8 km/h 94 % 3.56 mm
14:40 20.9 °C 19.9 °C 1011.4 hPa NNE 9.8 km/h 18.5 km/h 94 % 3.3 mm
14:45 20.9 °C 19.9 °C 1011.1 hPa NE 8.5 km/h 14.5 km/h 94 % 3.3 mm
14:50 20.8 °C 19.8 °C 1011.1 hPa NE 10.6 km/h 18.5 km/h 94 % 3.3 mm
14:55 20.8 °C 19.8 °C 1011.1 hPa North 13.8 km/h 18.5 km/h 94 % 2.79 mm
14:59 20.8 °C 19.9 °C 1011.1 hPa North 13.5 km/h 16.7 km/h 95 % 2.54 mm
15:04 20.8 °C 20 °C 1010.7 hPa North 15.3 km/h 24.1 km/h 95 % 2.29 mm
15:09 20.8 °C 20 °C 1010.7 hPa NNE 15.4 km/h 22.2 km/h 95 % 1.78 mm
15:14 20.9 °C 20.2 °C 1010.7 hPa North 15 km/h 18.5 km/h 96 % 1.27 mm
15:19 20.9 °C 20.2 °C 1010.7 hPa NNE 15.9 km/h 20.4 km/h 96 % 1.27 mm
15:25 20.9 °C 20.2 °C 1010.7 hPa NNE 9.5 km/h 24.1 km/h 96 % 0.76 mm
15:30 20.9 °C 20.3 °C 1010.7 hPa NNE 12.2 km/h 18.5 km/h 96 % 0.51 mm
15:35 20.9 °C 20.3 °C 1010.4 hPa NNE 13 km/h 24.1 km/h 96 % 0.25 mm
15:40 20.9 °C 20.3 °C 1010.4 hPa NNE 14.2 km/h 22.2 km/h 96 % 0.25 mm
15:45 20.9 °C 20.1 °C 1010.4 hPa NNE 14.5 km/h 32.2 km/h 95 % 0 mm
15:50 20.9 °C 20.1 °C 1010.4 hPa NNE 12.9 km/h 24.1 km/h 95 % 0 mm
15:55 20.9 °C 20.1 °C 1010.4 hPa ENE 16.6 km/h 27.8 km/h 95 % 0 mm
16:01 20.9 °C 20.1 °C 1010.7 hPa North 11.9 km/h 19.3 km/h 95 % 0 mm
16:06 20.9 °C 20.1 °C 1010.4 hPa NNE 10.8 km/h 27.8 km/h 95 % 0 mm
16:11 20.9 °C 20.1 °C 1010.4 hPa NNE 9 km/h 20.9 km/h 95 % 0 mm
16:16 21 °C 20.2 °C 1010.4 hPa NNE 10 km/h 18.5 km/h 95 % 0 mm
16:21 21 °C 20.2 °C 1010.4 hPa NE 12.2 km/h 17.7 km/h 95 % 0.25 mm
16:26 21 °C 20.2 °C 1010.4 hPa North 14.8 km/h 24.1 km/h 95 % 0.25 mm
16:31 21 °C 20.2 °C 1010.4 hPa NE 7.6 km/h 18.5 km/h 95 % 0.25 mm
16:36 20.9 °C 20.1 °C 1010.4 hPa NNE 8.5 km/h 20.9 km/h 95 % 0.51 mm
16:41 20.9 °C 20.1 °C 1010.4 hPa NE 12.1 km/h 25.9 km/h 95 % 0.51 mm
16:46 20.9 °C 20.1 °C 1010.4 hPa NE 12.6 km/h 18.5 km/h 95 % 0.51 mm
16:51 20.8 °C 20 °C 1010.4 hPa NNE 10.3 km/h 20.4 km/h 95 % 0.51 mm
16:57 20.8 °C 19.9 °C 1010.4 hPa ENE 8.4 km/h 16.7 km/h 95 % 0.51 mm
17:02 20.8 °C 19.9 °C 1010 hPa East 10 km/h 22.2 km/h 95 % 0.51 mm
17:07 20.8 °C 19.9 °C 1010 hPa North 7.6 km/h 14.8 km/h 95 % 0.51 mm
17:12 20.8 °C 19.9 °C 1010 hPa NNE 15.6 km/h 24.1 km/h 95 % 0.51 mm
17:17 20.7 °C 19.9 °C 1010 hPa NNE 11.9 km/h 20.4 km/h 95 % 0.25 mm
17:22 20.7 °C 19.9 °C 1010.4 hPa NNE 9.8 km/h 18.5 km/h 95 % 0.25 mm
17:27 20.8 °C 19.9 °C 1010.4 hPa NE 11.3 km/h 14.8 km/h 95 % 0.25 mm
17:32 20.7 °C 19.9 °C 1010 hPa East 10 km/h 18.5 km/h 95 % 0.25 mm
17:37 20.8 °C 19.9 °C 1010 hPa NNE 8.9 km/h 20.4 km/h 95 % 0 mm
17:42 20.8 °C 19.9 °C 1010 hPa NE 16.4 km/h 16.4 km/h 95 % 0 mm
17:47 20.7 °C 19.9 °C 1010 hPa NE 14.2 km/h 25.9 km/h 95 % 0 mm
17:52 20.7 °C 19.9 °C 1010 hPa NE 10.9 km/h 12.9 km/h 95 % 0 mm
17:58 20.7 °C 19.9 °C 1010 hPa NNE 11.3 km/h 16.7 km/h 95 % 0.25 mm
18:03 20.7 °C 19.8 °C 1010 hPa NNE 10.5 km/h 24.1 km/h 95 % 1.27 mm
18:08 20.7 °C 19.8 °C 1010 hPa North 8.7 km/h 18.5 km/h 95 % 1.27 mm
18:13 20.6 °C 19.8 °C 1009.7 hPa North 10.8 km/h 18.5 km/h 95 % 1.27 mm
18:18 20.6 °C 19.7 °C 1009.7 hPa North 8.7 km/h 19.3 km/h 95 % 1.27 mm
18:23 20.6 °C 19.7 °C 1009.7 hPa NE 11.6 km/h 18.5 km/h 95 % 1.27 mm
18:28 20.6 °C 19.7 °C 1009.7 hPa NE 8.9 km/h 18.5 km/h 95 % 1.27 mm
18:33 20.6 °C 19.9 °C 1009.7 hPa NE 12.7 km/h 19.3 km/h 96 % 1.27 mm
18:38 20.6 °C 19.9 °C 1009.7 hPa NE 10.6 km/h 19.3 km/h 96 % 1.27 mm
18:43 20.6 °C 19.9 °C 1009.7 hPa NE 8 km/h 20.4 km/h 96 % 1.27 mm
18:48 20.5 °C 19.8 °C 1009.7 hPa ENE 9.3 km/h 14.8 km/h 96 % 1.52 mm
18:53 20.5 °C 19.8 °C 1009.7 hPa NE 9.2 km/h 16.7 km/h 96 % 1.52 mm
18:58 20.5 °C 19.8 °C 1009.4 hPa NE 7.2 km/h 14.8 km/h 96 % 1.27 mm
19:03 20.5 °C 19.8 °C 1009.4 hPa NNE 10.5 km/h 18.5 km/h 96 % 0.25 mm
19:09 20.5 °C 19.8 °C 1009.4 hPa NNE 12.9 km/h 20.4 km/h 96 % 0.25 mm
19:14 20.6 °C 19.9 °C 1009.4 hPa NNE 9.2 km/h 18.5 km/h 96 % 0.25 mm
19:19 20.5 °C 19.8 °C 1009.4 hPa ENE 11.9 km/h 20.4 km/h 96 % 0.25 mm
19:24 20.6 °C 19.9 °C 1009.4 hPa North 9.7 km/h 16.7 km/h 96 % 0.25 mm
19:29 20.6 °C 19.9 °C 1009.4 hPa ENE 14.2 km/h 22.2 km/h 96 % 0.25 mm
19:34 20.6 °C 19.9 °C 1009.4 hPa NNE 10.5 km/h 18.5 km/h 96 % 0.25 mm
19:39 20.6 °C 19.9 °C 1009.4 hPa NE 9.3 km/h 18.5 km/h 96 % 0.25 mm
19:44 20.6 °C 19.9 °C 1009.4 hPa ENE 9.8 km/h 18.5 km/h 96 % 0.25 mm
19:49 20.6 °C 19.9 °C 1009.4 hPa NE 8.2 km/h 13 km/h 96 % 0 mm
19:54 20.6 °C 19.9 °C 1009.4 hPa NNE 12.7 km/h 20.4 km/h 96 % 0 mm
19:59 20.6 °C 19.8 °C 1009.4 hPa North 8.7 km/h 16.7 km/h 95 % 0 mm
20:04 20.6 °C 19.8 °C 1009.4 hPa NE 11.6 km/h 27.8 km/h 95 % 0 mm
20:10 20.7 °C 19.8 °C 1009.4 hPa NE 9.3 km/h 16.7 km/h 95 % 0 mm
20:15 20.7 °C 19.8 °C 1009.4 hPa NE 10.9 km/h 18.5 km/h 95 % 0 mm
20:20 20.7 °C 19.7 °C 1009.4 hPa NE 9 km/h 20.9 km/h 94 % 0 mm
20:25 20.7 °C 19.7 °C 1009.7 hPa NNE 8 km/h 14.8 km/h 94 % 0 mm
20:30 20.8 °C 19.8 °C 1009.7 hPa NE 8 km/h 16.1 km/h 94 % 0 mm
20:35 20.8 °C 19.8 °C 1009.4 hPa NNE 9 km/h 14.8 km/h 94 % 0 mm
20:40 20.9 °C 19.9 °C 1009.4 hPa NE 11.1 km/h 22.2 km/h 94 % 0 mm
20:45 20.9 °C 19.9 °C 1009.7 hPa East 8.7 km/h 14.5 km/h 94 % 0 mm
20:50 20.9 °C 19.9 °C 1009.4 hPa ENE 12.4 km/h 20.4 km/h 94 % 0 mm
20:55 20.9 °C 19.9 °C 1009.4 hPa NE 9.3 km/h 14.5 km/h 94 % 0 mm
21:00 21 °C 19.8 °C 1009.4 hPa NE 14.2 km/h 20.9 km/h 93 % 0 mm
21:05 21 °C 19.8 °C 1009.4 hPa ENE 8.9 km/h 18.5 km/h 93 % 0 mm
21:10 21 °C 19.8 °C 1009.4 hPa NE 8.9 km/h 16.7 km/h 93 % 0 mm
21:16 21.1 °C 19.9 °C 1009.4 hPa NE 9.7 km/h 16.1 km/h 93 % 0 mm
21:21 21.1 °C 19.9 °C 1009.4 hPa ENE 10.6 km/h 19.3 km/h 93 % 0 mm
21:26 21.1 °C 19.9 °C 1009.4 hPa NE 11.3 km/h 24.1 km/h 93 % 0 mm
21:31 21.1 °C 19.9 °C 1009.4 hPa NE 12.9 km/h 27.4 km/h 93 % 0 mm
21:36 21.1 °C 19.9 °C 1009.4 hPa NE 11.3 km/h 19.3 km/h 93 % 0 mm
21:41 21.1 °C 19.9 °C 1009 hPa NE 12.9 km/h 32.2 km/h 93 % 0 mm
21:46 21.2 °C 20 °C 1009.4 hPa NNE 9.8 km/h 18.5 km/h 93 % 0 mm
21:51 21.2 °C 20 °C 1009 hPa NE 11.3 km/h 22.5 km/h 93 % 0 mm
21:56 21.2 °C 20 °C 1009 hPa NE 9.7 km/h 25.7 km/h 93 % 0 mm
22:01 21.2 °C 20 °C 1009 hPa NNE 9.3 km/h 18.5 km/h 93 % 0 mm
22:06 21.2 °C 19.8 °C 1009 hPa ENE 12.7 km/h 24.1 km/h 92 % 0 mm
22:11 21.2 °C 19.9 °C 1009 hPa NNE 11.1 km/h 22.2 km/h 92 % 0 mm
22:16 21.2 °C 19.9 °C 1008.7 hPa NNE 9.2 km/h 24.1 km/h 92 % 0 mm
22:21 21.3 °C 19.9 °C 1008.7 hPa North 8.4 km/h 29.6 km/h 92 % 0 mm
22:26 21.3 °C 19.7 °C 1008.7 hPa NNE 9.2 km/h 24.1 km/h 91 % 0 mm
22:31 21.3 °C 19.7 °C 1008.7 hPa NE 11.3 km/h 18.5 km/h 91 % 0 mm
22:36 21.3 °C 19.8 °C 1008.7 hPa NNE 10.8 km/h 18.5 km/h 91 % 0 mm
22:41 21.4 °C 19.8 °C 1008.7 hPa ENE 11.6 km/h 20.4 km/h 91 % 0 mm
22:46 21.4 °C 19.8 °C 1008.7 hPa NNE 13 km/h 24.1 km/h 91 % 0 mm
22:52 21.4 °C 19.8 °C 1008.7 hPa NNE 11.6 km/h 20.4 km/h 91 % 0 mm
22:57 21.4 °C 19.9 °C 1008.7 hPa NNE 10.1 km/h 18.5 km/h 91 % 0 mm
23:02 21.4 °C 19.9 °C 1008.7 hPa North 10.8 km/h 22.5 km/h 91 % 0 mm
23:07 21.4 °C 19.9 °C 1008.7 hPa NNE 8.2 km/h 16.7 km/h 91 % 0 mm
23:19 21.4 °C 19.7 °C 1008.7 hPa ENE 12.4 km/h 19.3 km/h 90 % 0 mm
23:22 21.4 °C 19.7 °C 1008.7 hPa NE 13.2 km/h 20.4 km/h 90 % 0 mm
23:23 21.4 °C 19.7 °C 1008.7 hPa NNE 10.9 km/h 18.5 km/h 90 % 0 mm
23:25 21.5 °C 19.8 °C 1008.7 hPa ENE 10.1 km/h 18.5 km/h 90 % 0 mm
23:26 21.4 °C 19.7 °C 1008.7 hPa ENE 10.9 km/h 20.4 km/h 90 % 0 mm
23:27 21.5 °C 19.8 °C 1008.7 hPa NNW 9.3 km/h 16.1 km/h 90 % 0 mm
23:32 21.4 °C 19.7 °C 1008.7 hPa NNE 10.3 km/h 22.5 km/h 90 % 0 mm
23:37 21.5 °C 19.8 °C 1008.4 hPa NE 8.4 km/h 13 km/h 90 % 0 mm
23:42 21.5 °C 19.8 °C 1008.7 hPa NE 11.6 km/h 18.5 km/h 90 % 0 mm
23:47 21.5 °C 19.8 °C 1008.7 hPa NE 13 km/h 18.5 km/h 90 % 0 mm
23:52 21.5 °C 19.8 °C 1008.4 hPa North 13.5 km/h 20.4 km/h 90 % 0 mm
23:57 21.5 °C 19.8 °C 1008.4 hPa NNE 6.9 km/h 27.8 km/h 90 % 0 mm
Crab Meadow Weather
Compliments of Weather Underground - 3 mb

Script developed by  Jim McMurry - jmcmurry@mwt.net Adapted for the template by  Wim van der Kuil - Leuven-Template.eu

Weather Terms: Watch - A watch is used when the risk of a hazardous weather or hydrologic event has increased significantly, but its occurrence, location or timing is still uncertain. It is intended to provide enough lead time so those who need to set their plans in motion can do so. A watch means that hazardous weather is possible. People should have a plan of action in case a storm threatens and they should listen for later information and possible warnings especially when planning travel or outdoor activities.